sensor_id;sensor_type;location;lat;lon;timestamp;P1;P2;P0
72908;PMS5003;61051;62.624;17.950;2023-08-21T00:00:01;4;4;
72908;PMS5003;61051;62.624;17.950;2023-08-21T00:02:31;3;3;
72908;PMS5003;61051;62.624;17.950;2023-08-21T00:04:59;5;5;
72908;PMS5003;61051;62.624;17.950;2023-08-21T00:07:29;6;6;
72908;PMS5003;61051;62.624;17.950;2023-08-21T00:09:57;5;5;
72908;PMS5003;61051;62.624;17.950;2023-08-21T00:12:25;4;4;
72908;PMS5003;61051;62.624;17.950;2023-08-21T00:14:53;3;3;
72908;PMS5003;61051;62.624;17.950;2023-08-21T00:17:21;5;3;
72908;PMS5003;61051;62.624;17.950;2023-08-21T00:19:49;4;3;
72908;PMS5003;61051;62.624;17.950;2023-08-21T00:22:18;7;5;
72908;PMS5003;61051;62.624;17.950;2023-08-21T00:24:46;5;5;
72908;PMS5003;61051;62.624;17.950;2023-08-21T00:27:14;4;3;
72908;PMS5003;61051;62.624;17.950;2023-08-21T00:29:42;5;5;
72908;PMS5003;61051;62.624;17.950;2023-08-21T00:32:10;5;5;
72908;PMS5003;61051;62.624;17.950;2023-08-21T00:34:38;7;6;
72908;PMS5003;61051;62.624;17.950;2023-08-21T00:37:07;5;4;
72908;PMS5003;61051;62.624;17.950;2023-08-21T00:39:35;3;3;
72908;PMS5003;61051;62.624;17.950;2023-08-21T00:42:04;4;4;
72908;PMS5003;61051;62.624;17.950;2023-08-21T00:44:32;8;6;
72908;PMS5003;61051;62.624;17.950;2023-08-21T00:47:01;6;6;
72908;PMS5003;61051;62.624;17.950;2023-08-21T00:49:30;8;5;
72908;PMS5003;61051;62.624;17.950;2023-08-21T00:52:01;6;4;
72908;PMS5003;61051;62.624;17.950;2023-08-21T00:54:30;3;3;
72908;PMS5003;61051;62.624;17.950;2023-08-21T00:57:01;4;4;
72908;PMS5003;61051;62.624;17.950;2023-08-21T00:59:30;4;4;
72908;PMS5003;61051;62.624;17.950;2023-08-21T01:01:59;5;4;
72908;PMS5003;61051;62.624;17.950;2023-08-21T01:04:28;4;4;
72908;PMS5003;61051;62.624;17.950;2023-08-21T01:06:56;3;3;
72908;PMS5003;61051;62.624;17.950;2023-08-21T01:09:27;5;5;
72908;PMS5003;61051;62.624;17.950;2023-08-21T01:12:04;6;5;
72908;PMS5003;61051;62.624;17.950;2023-08-21T01:14:42;5;5;
72908;PMS5003;61051;62.624;17.950;2023-08-21T01:17:15;4;4;
72908;PMS5003;61051;62.624;17.950;2023-08-21T01:19:46;5;4;
72908;PMS5003;61051;62.624;17.950;2023-08-21T01:22:17;7;4;
72908;PMS5003;61051;62.624;17.950;2023-08-21T01:24:45;5;4;
72908;PMS5003;61051;62.624;17.950;2023-08-21T01:27:13;3;3;
72908;PMS5003;61051;62.624;17.950;2023-08-21T01:29:43;6;5;
72908;PMS5003;61051;62.624;17.950;2023-08-21T01:32:12;7;6;
72908;PMS5003;61051;62.624;17.950;2023-08-21T01:34:48;5;5;
72908;PMS5003;61051;62.624;17.950;2023-08-21T01:37:20;3;3;
72908;PMS5003;61051;62.624;17.950;2023-08-21T01:39:50;6;5;
72908;PMS5003;61051;62.624;17.950;2023-08-21T01:42:18;4;4;
72908;PMS5003;61051;62.624;17.950;2023-08-21T01:44:46;4;4;
72908;PMS5003;61051;62.624;17.950;2023-08-21T01:47:14;4;4;
72908;PMS5003;61051;62.624;17.950;2023-08-21T01:49:42;6;5;
72908;PMS5003;61051;62.624;17.950;2023-08-21T01:52:10;5;2;
72908;PMS5003;61051;62.624;17.950;2023-08-21T01:54:39;6;6;
72908;PMS5003;61051;62.624;17.950;2023-08-21T01:57:07;5;5;
72908;PMS5003;61051;62.624;17.950;2023-08-21T01:59:35;5;5;
72908;PMS5003;61051;62.624;17.950;2023-08-21T02:02:04;5;5;
72908;PMS5003;61051;62.624;17.950;2023-08-21T02:04:32;7;5;
72908;PMS5003;61051;62.624;17.950;2023-08-21T02:07:00;5;5;
72908;PMS5003;61051;62.624;17.950;2023-08-21T02:09:30;4;4;
72908;PMS5003;61051;62.624;17.950;2023-08-21T02:11:58;4;4;
72908;PMS5003;61051;62.624;17.950;2023-08-21T02:14:28;5;4;
72908;PMS5003;61051;62.624;17.950;2023-08-21T02:16:56;5;5;
72908;PMS5003;61051;62.624;17.950;2023-08-21T02:19:24;4;4;
72908;PMS5003;61051;62.624;17.950;2023-08-21T02:21:52;6;6;
72908;PMS5003;61051;62.624;17.950;2023-08-21T02:24:20;7;5;
72908;PMS5003;61051;62.624;17.950;2023-08-21T02:26:49;7;6;
72908;PMS5003;61051;62.624;17.950;2023-08-21T02:29:17;7;6;
72908;PMS5003;61051;62.624;17.950;2023-08-21T02:31:45;8;6;
72908;PMS5003;61051;62.624;17.950;2023-08-21T02:34:13;8;8;
72908;PMS5003;61051;62.624;17.950;2023-08-21T02:36:41;9;7;
72908;PMS5003;61051;62.624;17.950;2023-08-21T02:39:09;7;7;
72908;PMS5003;61051;62.624;17.950;2023-08-21T02:41:38;7;7;
72908;PMS5003;61051;62.624;17.950;2023-08-21T02:44:06;6;6;
72908;PMS5003;61051;62.624;17.950;2023-08-21T02:46:36;5;5;
72908;PMS5003;61051;62.624;17.950;2023-08-21T02:49:04;6;6;
72908;PMS5003;61051;62.624;17.950;2023-08-21T02:51:32;12;12;
72908;PMS5003;61051;62.624;17.950;2023-08-21T02:54:00;8;7;
72908;PMS5003;61051;62.624;17.950;2023-08-21T02:56:31;12;10;
72908;PMS5003;61051;62.624;17.950;2023-08-21T02:59:00;12;10;
72908;PMS5003;61051;62.624;17.950;2023-08-21T03:01:29;13;11;
72908;PMS5003;61051;62.624;17.950;2023-08-21T03:03:57;12;12;
72908;PMS5003;61051;62.624;17.950;2023-08-21T03:06:26;19;15;
72908;PMS5003;61051;62.624;17.950;2023-08-21T03:08:55;17;13;
72908;PMS5003;61051;62.624;17.950;2023-08-21T03:11:24;15;15;
72908;PMS5003;61051;62.624;17.950;2023-08-21T03:13:52;18;17;
72908;PMS5003;61051;62.624;17.950;2023-08-21T03:16:22;16;15;
72908;PMS5003;61051;62.624;17.950;2023-08-21T03:18:55;20;17;
72908;PMS5003;61051;62.624;17.950;2023-08-21T03:21:24;20;18;
72908;PMS5003;61051;62.624;17.950;2023-08-21T03:23:54;20;20;
72908;PMS5003;61051;62.624;17.950;2023-08-21T03:26:24;19;19;
72908;PMS5003;61051;62.624;17.950;2023-08-21T03:28:53;24;17;
72908;PMS5003;61051;62.624;17.950;2023-08-21T03:31:21;8;8;
72908;PMS5003;61051;62.624;17.950;2023-08-21T03:33:49;6;6;
72908;PMS5003;61051;62.624;17.950;2023-08-21T03:36:17;6;6;
72908;PMS5003;61051;62.624;17.950;2023-08-21T03:38:46;9;7;
72908;PMS5003;61051;62.624;17.950;2023-08-21T03:41:14;7;6;
72908;PMS5003;61051;62.624;17.950;2023-08-21T03:43:42;8;8;
72908;PMS5003;61051;62.624;17.950;2023-08-21T03:46:10;10;10;
72908;PMS5003;61051;62.624;17.950;2023-08-21T03:48:38;9;8;
72908;PMS5003;61051;62.624;17.950;2023-08-21T03:51:07;12;12;
72908;PMS5003;61051;62.624;17.950;2023-08-21T03:53:35;8;8;
72908;PMS5003;61051;62.624;17.950;2023-08-21T03:56:04;11;11;
72908;PMS5003;61051;62.624;17.950;2023-08-21T03:58:32;12;11;
72908;PMS5003;61051;62.624;17.950;2023-08-21T04:03:15;10;8;
72908;PMS5003;61051;62.624;17.950;2023-08-21T04:05:44;14;11;
72908;PMS5003;61051;62.624;17.950;2023-08-21T04:08:12;10;9;
72908;PMS5003;61051;62.624;17.950;2023-08-21T04:10:40;7;7;
72908;PMS5003;61051;62.624;17.950;2023-08-21T04:13:08;11;9;
72908;PMS5003;61051;62.624;17.950;2023-08-21T04:15:37;8;8;
72908;PMS5003;61051;62.624;17.950;2023-08-21T04:18:05;8;7;
72908;PMS5003;61051;62.624;17.950;2023-08-21T04:20:33;6;6;
72908;PMS5003;61051;62.624;17.950;2023-08-21T04:23:01;8;8;
72908;PMS5003;61051;62.624;17.950;2023-08-21T04:25:29;7;7;
72908;PMS5003;61051;62.624;17.950;2023-08-21T04:27:57;6;6;
72908;PMS5003;61051;62.624;17.950;2023-08-21T04:30:25;11;8;
72908;PMS5003;61051;62.624;17.950;2023-08-21T04:32:54;7;6;
72908;PMS5003;61051;62.624;17.950;2023-08-21T04:35:22;9;6;
72908;PMS5003;61051;62.624;17.950;2023-08-21T04:37:50;7;6;
72908;PMS5003;61051;62.624;17.950;2023-08-21T04:40:20;5;5;
72908;PMS5003;61051;62.624;17.950;2023-08-21T04:42:48;8;8;
72908;PMS5003;61051;62.624;17.950;2023-08-21T04:45:16;8;6;
72908;PMS5003;61051;62.624;17.950;2023-08-21T04:47:44;7;6;
72908;PMS5003;61051;62.624;17.950;2023-08-21T04:50:12;5;5;
72908;PMS5003;61051;62.624;17.950;2023-08-21T04:52:40;7;7;
72908;PMS5003;61051;62.624;17.950;2023-08-21T04:55:09;7;7;
72908;PMS5003;61051;62.624;17.950;2023-08-21T04:57:37;4;4;
72908;PMS5003;61051;62.624;17.950;2023-08-21T05:00:05;6;6;
72908;PMS5003;61051;62.624;17.950;2023-08-21T05:02:35;4;4;
72908;PMS5003;61051;62.624;17.950;2023-08-21T05:05:03;7;7;
72908;PMS5003;61051;62.624;17.950;2023-08-21T05:07:33;5;5;
72908;PMS5003;61051;62.624;17.950;2023-08-21T05:10:03;8;7;
72908;PMS5003;61051;62.624;17.950;2023-08-21T05:12:33;6;6;
72908;PMS5003;61051;62.624;17.950;2023-08-21T05:15:01;4;4;
72908;PMS5003;61051;62.624;17.950;2023-08-21T05:17:29;6;6;
72908;PMS5003;61051;62.624;17.950;2023-08-21T05:19:57;7;6;
72908;PMS5003;61051;62.624;17.950;2023-08-21T05:22:25;6;6;
72908;PMS5003;61051;62.624;17.950;2023-08-21T05:24:53;5;5;
72908;PMS5003;61051;62.624;17.950;2023-08-21T05:27:22;6;6;
72908;PMS5003;61051;62.624;17.950;2023-08-21T05:29:50;4;4;
72908;PMS5003;61051;62.624;17.950;2023-08-21T05:32:20;6;6;
72908;PMS5003;61051;62.624;17.950;2023-08-21T05:34:48;3;3;
72908;PMS5003;61051;62.624;17.950;2023-08-21T05:37:16;6;5;
72908;PMS5003;61051;62.624;17.950;2023-08-21T05:39:44;9;7;
72908;PMS5003;61051;62.624;17.950;2023-08-21T05:42:12;5;5;
72908;PMS5003;61051;62.624;17.950;2023-08-21T05:44:40;6;6;
72908;PMS5003;61051;62.624;17.950;2023-08-21T05:47:08;6;6;
72908;PMS5003;61051;62.624;17.950;2023-08-21T05:49:38;5;5;
72908;PMS5003;61051;62.624;17.950;2023-08-21T05:52:08;8;6;
72908;PMS5003;61051;62.624;17.950;2023-08-21T05:54:37;5;5;
72908;PMS5003;61051;62.624;17.950;2023-08-21T05:57:06;5;5;
72908;PMS5003;61051;62.624;17.950;2023-08-21T05:59:34;3;3;
72908;PMS5003;61051;62.624;17.950;2023-08-21T06:02:02;6;6;
72908;PMS5003;61051;62.624;17.950;2023-08-21T06:04:30;8;6;
72908;PMS5003;61051;62.624;17.950;2023-08-21T06:06:58;7;7;
72908;PMS5003;61051;62.624;17.950;2023-08-21T06:09:26;4;4;
72908;PMS5003;61051;62.624;17.950;2023-08-21T06:11:54;6;6;
72908;PMS5003;61051;62.624;17.950;2023-08-21T06:14:22;6;6;
72908;PMS5003;61051;62.624;17.950;2023-08-21T06:16:51;7;6;
72908;PMS5003;61051;62.624;17.950;2023-08-21T06:19:20;6;6;
72908;PMS5003;61051;62.624;17.950;2023-08-21T06:21:49;7;7;
72908;PMS5003;61051;62.624;17.950;2023-08-21T06:24:18;4;4;
72908;PMS5003;61051;62.624;17.950;2023-08-21T06:26:47;7;7;
72908;PMS5003;61051;62.624;17.950;2023-08-21T06:29:15;6;6;
72908;PMS5003;61051;62.624;17.950;2023-08-21T06:31:43;8;7;
72908;PMS5003;61051;62.624;17.950;2023-08-21T06:34:12;5;5;
72908;PMS5003;61051;62.624;17.950;2023-08-21T06:36:40;4;4;
72908;PMS5003;61051;62.624;17.950;2023-08-21T06:39:08;7;5;
72908;PMS5003;61051;62.624;17.950;2023-08-21T06:41:36;4;4;
72908;PMS5003;61051;62.624;17.950;2023-08-21T06:44:04;5;5;
72908;PMS5003;61051;62.624;17.950;2023-08-21T06:46:32;6;6;
72908;PMS5003;61051;62.624;17.950;2023-08-21T06:49:00;6;6;
72908;PMS5003;61051;62.624;17.950;2023-08-21T06:51:29;6;5;
72908;PMS5003;61051;62.624;17.950;2023-08-21T06:53:57;5;5;
72908;PMS5003;61051;62.624;17.950;2023-08-21T06:56:25;7;7;
72908;PMS5003;61051;62.624;17.950;2023-08-21T06:58:53;7;7;
72908;PMS5003;61051;62.624;17.950;2023-08-21T07:01:21;7;7;
72908;PMS5003;61051;62.624;17.950;2023-08-21T07:03:50;6;6;
72908;PMS5003;61051;62.624;17.950;2023-08-21T07:06:20;5;5;
72908;PMS5003;61051;62.624;17.950;2023-08-21T07:08:50;7;7;
72908;PMS5003;61051;62.624;17.950;2023-08-21T07:11:19;7;7;
72908;PMS5003;61051;62.624;17.950;2023-08-21T07:13:47;9;8;
72908;PMS5003;61051;62.624;17.950;2023-08-21T07:16:17;5;5;
72908;PMS5003;61051;62.624;17.950;2023-08-21T07:18:45;5;4;
72908;PMS5003;61051;62.624;17.950;2023-08-21T07:21:13;7;7;
72908;PMS5003;61051;62.624;17.950;2023-08-21T07:23:42;10;9;
72908;PMS5003;61051;62.624;17.950;2023-08-21T07:26:10;8;6;
72908;PMS5003;61051;62.624;17.950;2023-08-21T07:28:38;7;7;
72908;PMS5003;61051;62.624;17.950;2023-08-21T07:31:07;6;5;
72908;PMS5003;61051;62.624;17.950;2023-08-21T07:33:35;6;6;
72908;PMS5003;61051;62.624;17.950;2023-08-21T07:36:03;7;7;
72908;PMS5003;61051;62.624;17.950;2023-08-21T07:38:33;7;7;
72908;PMS5003;61051;62.624;17.950;2023-08-21T07:41:03;9;8;
72908;PMS5003;61051;62.624;17.950;2023-08-21T07:43:33;7;7;
72908;PMS5003;61051;62.624;17.950;2023-08-21T07:46:02;5;5;
72908;PMS5003;61051;62.624;17.950;2023-08-21T07:48:32;7;7;
72908;PMS5003;61051;62.624;17.950;2023-08-21T07:51:02;6;6;
72908;PMS5003;61051;62.624;17.950;2023-08-21T07:53:30;6;6;
72908;PMS5003;61051;62.624;17.950;2023-08-21T07:55:58;5;4;
72908;PMS5003;61051;62.624;17.950;2023-08-21T07:58:28;4;4;
72908;PMS5003;61051;62.624;17.950;2023-08-21T08:00:58;4;4;
72908;PMS5003;61051;62.624;17.950;2023-08-21T08:03:28;5;5;
72908;PMS5003;61051;62.624;17.950;2023-08-21T08:05:56;4;4;
72908;PMS5003;61051;62.624;17.950;2023-08-21T08:08:24;2;2;
72908;PMS5003;61051;62.624;17.950;2023-08-21T08:10:52;6;5;
72908;PMS5003;61051;62.624;17.950;2023-08-21T08:13:22;4;4;
72908;PMS5003;61051;62.624;17.950;2023-08-21T08:15:50;6;5;
72908;PMS5003;61051;62.624;17.950;2023-08-21T08:18:19;5;5;
72908;PMS5003;61051;62.624;17.950;2023-08-21T08:20:48;4;4;
72908;PMS5003;61051;62.624;17.950;2023-08-21T08:23:16;6;6;
72908;PMS5003;61051;62.624;17.950;2023-08-21T08:25:44;6;5;
72908;PMS5003;61051;62.624;17.950;2023-08-21T08:28:12;5;4;
72908;PMS5003;61051;62.624;17.950;2023-08-21T08:30:40;5;5;
72908;PMS5003;61051;62.624;17.950;2023-08-21T08:33:08;4;3;
72908;PMS5003;61051;62.624;17.950;2023-08-21T08:35:36;3;3;
72908;PMS5003;61051;62.624;17.950;2023-08-21T08:38:04;5;5;
72908;PMS5003;61051;62.624;17.950;2023-08-21T08:40:33;5;4;
72908;PMS5003;61051;62.624;17.950;2023-08-21T08:43:02;6;6;
72908;PMS5003;61051;62.624;17.950;2023-08-21T08:45:31;9;7;
72908;PMS5003;61051;62.624;17.950;2023-08-21T08:48:01;10;7;
72908;PMS5003;61051;62.624;17.950;2023-08-21T08:50:31;7;7;
72908;PMS5003;61051;62.624;17.950;2023-08-21T08:53:01;7;6;
72908;PMS5003;61051;62.624;17.950;2023-08-21T08:55:29;7;7;
72908;PMS5003;61051;62.624;17.950;2023-08-21T08:57:59;7;7;
72908;PMS5003;61051;62.624;17.950;2023-08-21T09:00:27;10;10;
72908;PMS5003;61051;62.624;17.950;2023-08-21T09:02:56;16;10;
72908;PMS5003;61051;62.624;17.950;2023-08-21T09:05:24;9;6;
72908;PMS5003;61051;62.624;17.950;2023-08-21T09:08:02;10;9;
72908;PMS5003;61051;62.624;17.950;2023-08-21T09:10:31;7;7;
72908;PMS5003;61051;62.624;17.950;2023-08-21T09:12:59;11;8;
72908;PMS5003;61051;62.624;17.950;2023-08-21T09:15:28;8;8;
72908;PMS5003;61051;62.624;17.950;2023-08-21T09:17:56;10;10;
72908;PMS5003;61051;62.624;17.950;2023-08-21T09:20:24;8;7;
72908;PMS5003;61051;62.624;17.950;2023-08-21T09:22:53;7;7;
72908;PMS5003;61051;62.624;17.950;2023-08-21T09:25:23;7;6;
72908;PMS5003;61051;62.624;17.950;2023-08-21T09:27:52;5;5;
72908;PMS5003;61051;62.624;17.950;2023-08-21T09:30:21;6;6;
72908;PMS5003;61051;62.624;17.950;2023-08-21T09:32:52;8;7;
72908;PMS5003;61051;62.624;17.950;2023-08-21T09:35:22;10;7;
72908;PMS5003;61051;62.624;17.950;2023-08-21T09:37:52;6;6;
72908;PMS5003;61051;62.624;17.950;2023-08-21T09:40:21;15;7;
72908;PMS5003;61051;62.624;17.950;2023-08-21T09:42:51;7;7;
72908;PMS5003;61051;62.624;17.950;2023-08-21T09:45:21;10;10;
72908;PMS5003;61051;62.624;17.950;2023-08-21T09:47:51;9;9;
72908;PMS5003;61051;62.624;17.950;2023-08-21T09:50:21;8;8;
72908;PMS5003;61051;62.624;17.950;2023-08-21T09:52:51;9;9;
72908;PMS5003;61051;62.624;17.950;2023-08-21T09:55:22;8;8;
72908;PMS5003;61051;62.624;17.950;2023-08-21T09:57:51;7;7;
72908;PMS5003;61051;62.624;17.950;2023-08-21T10:03:26;11;10;
72908;PMS5003;61051;62.624;17.950;2023-08-21T10:05:58;8;8;
72908;PMS5003;61051;62.624;17.950;2023-08-21T10:08:28;14;12;
72908;PMS5003;61051;62.624;17.950;2023-08-21T10:10:57;14;12;
72908;PMS5003;61051;62.624;17.950;2023-08-21T10:13:27;11;10;
72908;PMS5003;61051;62.624;17.950;2023-08-21T10:15:56;12;11;
72908;PMS5003;61051;62.624;17.950;2023-08-21T10:18:29;7;7;
72908;PMS5003;61051;62.624;17.950;2023-08-21T10:21:10;6;5;
72908;PMS5003;61051;62.624;17.950;2023-08-21T10:23:39;7;7;
72908;PMS5003;61051;62.624;17.950;2023-08-21T10:26:09;8;5;
72908;PMS5003;61051;62.624;17.950;2023-08-21T10:28:41;6;5;
72908;PMS5003;61051;62.624;17.950;2023-08-21T10:31:42;5;5;
72908;PMS5003;61051;62.624;17.950;2023-08-21T10:34:12;5;5;
72908;PMS5003;61051;62.624;17.950;2023-08-21T10:37:06;3;3;
72908;PMS5003;61051;62.624;17.950;2023-08-21T10:39:36;4;4;
72908;PMS5003;61051;62.624;17.950;2023-08-21T10:42:06;6;6;
72908;PMS5003;61051;62.624;17.950;2023-08-21T10:44:37;4;4;
72908;PMS5003;61051;62.624;17.950;2023-08-21T10:47:16;4;4;
72908;PMS5003;61051;62.624;17.950;2023-08-21T10:49:47;5;5;
72908;PMS5003;61051;62.624;17.950;2023-08-21T10:52:18;5;5;
72908;PMS5003;61051;62.624;17.950;2023-08-21T10:54:50;7;7;
72908;PMS5003;61051;62.624;17.950;2023-08-21T10:57:21;6;6;
72908;PMS5003;61051;62.624;17.950;2023-08-21T10:59:51;4;3;
72908;PMS5003;61051;62.624;17.950;2023-08-21T11:02:21;7;5;
72908;PMS5003;61051;62.624;17.950;2023-08-21T11:04:50;6;4;
72908;PMS5003;61051;62.624;17.950;2023-08-21T11:07:20;8;8;
72908;PMS5003;61051;62.624;17.950;2023-08-21T11:09:50;6;4;
72908;PMS5003;61051;62.624;17.950;2023-08-21T11:12:20;5;5;
72908;PMS5003;61051;62.624;17.950;2023-08-21T11:14:50;6;4;
72908;PMS5003;61051;62.624;17.950;2023-08-21T11:17:18;5;5;
72908;PMS5003;61051;62.624;17.950;2023-08-21T11:19:46;8;7;
72908;PMS5003;61051;62.624;17.950;2023-08-21T11:22:14;5;5;
72908;PMS5003;61051;62.624;17.950;2023-08-21T11:24:44;6;6;
72908;PMS5003;61051;62.624;17.950;2023-08-21T11:27:14;4;4;
72908;PMS5003;61051;62.624;17.950;2023-08-21T11:29:43;5;5;
72908;PMS5003;61051;62.624;17.950;2023-08-21T11:32:13;5;4;
72908;PMS5003;61051;62.624;17.950;2023-08-21T11:34:47;6;6;
72908;PMS5003;61051;62.624;17.950;2023-08-21T11:37:18;5;3;
72908;PMS5003;61051;62.624;17.950;2023-08-21T11:39:49;4;4;
72908;PMS5003;61051;62.624;17.950;2023-08-21T11:42:18;4;4;
72908;PMS5003;61051;62.624;17.950;2023-08-21T11:44:48;3;3;
72908;PMS5003;61051;62.624;17.950;2023-08-21T11:47:20;4;4;
72908;PMS5003;61051;62.624;17.950;2023-08-21T11:49:51;3;3;
72908;PMS5003;61051;62.624;17.950;2023-08-21T11:52:19;5;5;
72908;PMS5003;61051;62.624;17.950;2023-08-21T11:54:49;5;4;
72908;PMS5003;61051;62.624;17.950;2023-08-21T11:57:19;3;3;
72908;PMS5003;61051;62.624;17.950;2023-08-21T11:59:50;4;4;
72908;PMS5003;61051;62.624;17.950;2023-08-21T12:02:21;3;3;
72908;PMS5003;61051;62.624;17.950;2023-08-21T12:04:52;3;3;
72908;PMS5003;61051;62.624;17.950;2023-08-21T12:07:21;3;3;
72908;PMS5003;61051;62.624;17.950;2023-08-21T12:09:49;4;4;
72908;PMS5003;61051;62.624;17.950;2023-08-21T12:12:17;5;5;
72908;PMS5003;61051;62.624;17.950;2023-08-21T12:14:45;6;5;
72908;PMS5003;61051;62.624;17.950;2023-08-21T12:17:13;3;3;
72908;PMS5003;61051;62.624;17.950;2023-08-21T12:19:41;4;4;
72908;PMS5003;61051;62.624;17.950;2023-08-21T12:22:10;4;4;
72908;PMS5003;61051;62.624;17.950;2023-08-21T12:24:38;4;4;
72908;PMS5003;61051;62.624;17.950;2023-08-21T12:27:06;4;3;
72908;PMS5003;61051;62.624;17.950;2023-08-21T12:29:36;4;4;
72908;PMS5003;61051;62.624;17.950;2023-08-21T12:32:04;5;5;
72908;PMS5003;61051;62.624;17.950;2023-08-21T12:34:34;4;4;
72908;PMS5003;61051;62.624;17.950;2023-08-21T12:37:02;3;3;
72908;PMS5003;61051;62.624;17.950;2023-08-21T12:39:31;6;6;
72908;PMS5003;61051;62.624;17.950;2023-08-21T12:41:59;8;6;
72908;PMS5003;61051;62.624;17.950;2023-08-21T12:44:28;3;3;
72908;PMS5003;61051;62.624;17.950;2023-08-21T12:46:56;3;3;
72908;PMS5003;61051;62.624;17.950;2023-08-21T12:49:24;5;5;
72908;PMS5003;61051;62.624;17.950;2023-08-21T12:51:52;2;2;
72908;PMS5003;61051;62.624;17.950;2023-08-21T12:54:20;4;4;
72908;PMS5003;61051;62.624;17.950;2023-08-21T12:56:48;6;6;
72908;PMS5003;61051;62.624;17.950;2023-08-21T12:59:16;4;4;
72908;PMS5003;61051;62.624;17.950;2023-08-21T13:01:44;4;4;
72908;PMS5003;61051;62.624;17.950;2023-08-21T13:04:12;6;4;
72908;PMS5003;61051;62.624;17.950;2023-08-21T13:06:40;4;4;
72908;PMS5003;61051;62.624;17.950;2023-08-21T13:09:08;3;3;
72908;PMS5003;61051;62.624;17.950;2023-08-21T13:11:37;4;4;
72908;PMS5003;61051;62.624;17.950;2023-08-21T13:14:05;2;2;
72908;PMS5003;61051;62.624;17.950;2023-08-21T13:16:34;4;3;
72908;PMS5003;61051;62.624;17.950;2023-08-21T13:19:03;3;3;
72908;PMS5003;61051;62.624;17.950;2023-08-21T13:21:31;5;5;
72908;PMS5003;61051;62.624;17.950;2023-08-21T13:23:59;5;5;
72908;PMS5003;61051;62.624;17.950;2023-08-21T13:26:27;4;4;
72908;PMS5003;61051;62.624;17.950;2023-08-21T13:28:55;5;3;
72908;PMS5003;61051;62.624;17.950;2023-08-21T13:31:23;3;3;
72908;PMS5003;61051;62.624;17.950;2023-08-21T13:33:51;5;5;
72908;PMS5003;61051;62.624;17.950;2023-08-21T13:36:19;5;5;
72908;PMS5003;61051;62.624;17.950;2023-08-21T13:38:49;5;5;
72908;PMS5003;61051;62.624;17.950;2023-08-21T13:41:17;6;6;
72908;PMS5003;61051;62.624;17.950;2023-08-21T13:43:45;5;5;
72908;PMS5003;61051;62.624;17.950;2023-08-21T13:46:13;4;4;
72908;PMS5003;61051;62.624;17.950;2023-08-21T13:48:41;5;5;
72908;PMS5003;61051;62.624;17.950;2023-08-21T13:51:09;3;3;
72908;PMS5003;61051;62.624;17.950;2023-08-21T13:53:37;4;4;
72908;PMS5003;61051;62.624;17.950;2023-08-21T13:56:07;6;5;
72908;PMS5003;61051;62.624;17.950;2023-08-21T13:58:35;4;4;
72908;PMS5003;61051;62.624;17.950;2023-08-21T14:01:03;4;4;
72908;PMS5003;61051;62.624;17.950;2023-08-21T14:03:33;5;5;
72908;PMS5003;61051;62.624;17.950;2023-08-21T14:06:01;4;4;
72908;PMS5003;61051;62.624;17.950;2023-08-21T14:08:29;6;5;
72908;PMS5003;61051;62.624;17.950;2023-08-21T14:10:57;4;4;
72908;PMS5003;61051;62.624;17.950;2023-08-21T14:13:25;5;5;
72908;PMS5003;61051;62.624;17.950;2023-08-21T14:15:53;8;6;
72908;PMS5003;61051;62.624;17.950;2023-08-21T14:18:21;6;6;
72908;PMS5003;61051;62.624;17.950;2023-08-21T14:20:49;7;5;
72908;PMS5003;61051;62.624;17.950;2023-08-21T14:23:18;4;4;
72908;PMS5003;61051;62.624;17.950;2023-08-21T14:25:46;6;6;
72908;PMS5003;61051;62.624;17.950;2023-08-21T14:28:14;4;4;
72908;PMS5003;61051;62.624;17.950;2023-08-21T14:30:42;7;7;
72908;PMS5003;61051;62.624;17.950;2023-08-21T14:33:10;5;5;
72908;PMS5003;61051;62.624;17.950;2023-08-21T14:35:38;5;5;
72908;PMS5003;61051;62.624;17.950;2023-08-21T14:38:06;6;6;
72908;PMS5003;61051;62.624;17.950;2023-08-21T14:40:36;6;6;
72908;PMS5003;61051;62.624;17.950;2023-08-21T14:43:04;5;5;
72908;PMS5003;61051;62.624;17.950;2023-08-21T14:45:34;7;7;
72908;PMS5003;61051;62.624;17.950;2023-08-21T14:48:02;5;5;
72908;PMS5003;61051;62.624;17.950;2023-08-21T14:50:31;7;7;
72908;PMS5003;61051;62.624;17.950;2023-08-21T14:53:00;6;6;
72908;PMS5003;61051;62.624;17.950;2023-08-21T14:55:28;3;3;
72908;PMS5003;61051;62.624;17.950;2023-08-21T14:57:56;6;6;
72908;PMS5003;61051;62.624;17.950;2023-08-21T15:00:24;5;5;
72908;PMS5003;61051;62.624;17.950;2023-08-21T15:02:52;7;7;
72908;PMS5003;61051;62.624;17.950;2023-08-21T15:05:20;4;4;
72908;PMS5003;61051;62.624;17.950;2023-08-21T15:07:49;7;7;
72908;PMS5003;61051;62.624;17.950;2023-08-21T15:10:17;7;6;
72908;PMS5003;61051;62.624;17.950;2023-08-21T15:12:45;5;4;
72908;PMS5003;61051;62.624;17.950;2023-08-21T15:15:13;4;4;
72908;PMS5003;61051;62.624;17.950;2023-08-21T15:17:41;7;7;
72908;PMS5003;61051;62.624;17.950;2023-08-21T15:20:09;5;5;
72908;PMS5003;61051;62.624;17.950;2023-08-21T15:22:37;7;6;
72908;PMS5003;61051;62.624;17.950;2023-08-21T15:25:06;7;6;
72908;PMS5003;61051;62.624;17.950;2023-08-21T15:27:37;8;8;
72908;PMS5003;61051;62.624;17.950;2023-08-21T15:30:06;6;6;
72908;PMS5003;61051;62.624;17.950;2023-08-21T15:32:36;6;6;
72908;PMS5003;61051;62.624;17.950;2023-08-21T15:35:05;7;7;
72908;PMS5003;61051;62.624;17.950;2023-08-21T15:37:34;9;8;
72908;PMS5003;61051;62.624;17.950;2023-08-21T15:40:02;8;7;
72908;PMS5003;61051;62.624;17.950;2023-08-21T15:42:32;7;7;
72908;PMS5003;61051;62.624;17.950;2023-08-21T15:45:00;4;4;
72908;PMS5003;61051;62.624;17.950;2023-08-21T15:47:28;8;7;
72908;PMS5003;61051;62.624;17.950;2023-08-21T15:49:57;6;6;
72908;PMS5003;61051;62.624;17.950;2023-08-21T15:52:25;6;6;
72908;PMS5003;61051;62.624;17.950;2023-08-21T15:54:53;8;8;
72908;PMS5003;61051;62.624;17.950;2023-08-21T15:57:21;6;6;
72908;PMS5003;61051;62.624;17.950;2023-08-21T15:59:49;8;7;
72908;PMS5003;61051;62.624;17.950;2023-08-21T16:03:17;8;8;
72908;PMS5003;61051;62.624;17.950;2023-08-21T16:05:45;6;6;
72908;PMS5003;61051;62.624;17.950;2023-08-21T16:08:13;7;6;
72908;PMS5003;61051;62.624;17.950;2023-08-21T16:10:41;10;6;
72908;PMS5003;61051;62.624;17.950;2023-08-21T16:13:09;5;5;
72908;PMS5003;61051;62.624;17.950;2023-08-21T16:15:37;5;5;
72908;PMS5003;61051;62.624;17.950;2023-08-21T16:18:05;5;5;
72908;PMS5003;61051;62.624;17.950;2023-08-21T16:20:35;5;5;
72908;PMS5003;61051;62.624;17.950;2023-08-21T16:23:03;5;5;
72908;PMS5003;61051;62.624;17.950;2023-08-21T16:25:32;5;5;
72908;PMS5003;61051;62.624;17.950;2023-08-21T16:28:00;5;5;
72908;PMS5003;61051;62.624;17.950;2023-08-21T16:30:28;6;6;
72908;PMS5003;61051;62.624;17.950;2023-08-21T16:32:56;5;5;
72908;PMS5003;61051;62.624;17.950;2023-08-21T16:35:26;6;6;
72908;PMS5003;61051;62.624;17.950;2023-08-21T16:37:55;14;9;
72908;PMS5003;61051;62.624;17.950;2023-08-21T16:40:25;10;7;
72908;PMS5003;61051;62.624;17.950;2023-08-21T16:42:54;8;6;
72908;PMS5003;61051;62.624;17.950;2023-08-21T16:45:24;8;7;
72908;PMS5003;61051;62.624;17.950;2023-08-21T16:47:54;4;4;